sensor_id;sensor_type;location;lat;lon;timestamp;pressure;altitude;pressure_sealevel;temperature;humidity
21988;BME280;11158;53.404;-1.510;2022-08-01T00:01:54;100853.66;;;20.79;47.32
21988;BME280;11158;53.404;-1.510;2022-08-01T00:04:20;100849.53;;;21.05;46.43
21988;BME280;11158;53.404;-1.510;2022-08-01T00:06:46;100848.13;;;21.02;46.00
21988;BME280;11158;53.404;-1.510;2022-08-01T00:09:12;100844.69;;;21.07;45.55
21988;BME280;11158;53.404;-1.510;2022-08-01T00:11:37;100842.19;;;21.34;44.63
21988;BME280;11158;53.404;-1.510;2022-08-01T00:14:03;100839.19;;;21.47;44.62
21988;BME280;11158;53.404;-1.510;2022-08-01T00:16:29;100843.66;;;21.53;43.72
21988;BME280;11158;53.404;-1.510;2022-08-01T00:18:54;100848.78;;;21.38;43.90
21988;BME280;11158;53.404;-1.510;2022-08-01T00:21:20;100848.88;;;21.26;44.66
21988;BME280;11158;53.404;-1.510;2022-08-01T00:23:46;100850.56;;;21.44;45.02
21988;BME280;11158;53.404;-1.510;2022-08-01T00:26:12;100849.25;;;21.18;44.98
21988;BME280;11158;53.404;-1.510;2022-08-01T00:28:38;100855.03;;;21.22;45.70
21988;BME280;11158;53.404;-1.510;2022-08-01T00:31:04;100854.88;;;21.00;45.94
21988;BME280;11158;53.404;-1.510;2022-08-01T00:33:29;100848.41;;;20.89;46.27
21988;BME280;11158;53.404;-1.510;2022-08-01T00:35:55;100850.09;;;20.90;46.31
21988;BME280;11158;53.404;-1.510;2022-08-01T00:38:21;100849.13;;;20.96;46.03
21988;BME280;11158;53.404;-1.510;2022-08-01T00:40:48;100846.28;;;21.03;45.90
21988;BME280;11158;53.404;-1.510;2022-08-01T00:43:14;100851.03;;;20.84;46.13
21988;BME280;11158;53.404;-1.510;2022-08-01T00:45:40;100854.69;;;20.25;46.92
21988;BME280;11158;53.404;-1.510;2022-08-01T00:48:06;100851.34;;;20.47;46.96
21988;BME280;11158;53.404;-1.510;2022-08-01T00:50:32;100848.63;;;20.47;47.10
21988;BME280;11158;53.404;-1.510;2022-08-01T00:52:59;100850.41;;;20.53;46.77
21988;BME280;11158;53.404;-1.510;2022-08-01T00:55:29;100844.28;;;20.46;47.35
21988;BME280;11158;53.404;-1.510;2022-08-01T00:57:58;100843.69;;;20.44;47.46
21988;BME280;11158;53.404;-1.510;2022-08-01T01:00:24;100844.28;;;20.46;46.94
21988;BME280;11158;53.404;-1.510;2022-08-01T01:02:50;100860.84;;;20.21;47.44
21988;BME280;11158;53.404;-1.510;2022-08-01T01:05:18;100862.47;;;19.86;48.07
21988;BME280;11158;53.404;-1.510;2022-08-01T01:10:28;100856.22;;;20.33;46.65
21988;BME280;11158;53.404;-1.510;2022-08-01T01:13:38;100866.25;;;20.33;46.76
21988;BME280;11158;53.404;-1.510;2022-08-01T01:16:06;100856.22;;;20.09;47.01
21988;BME280;11158;53.404;-1.510;2022-08-01T01:18:38;100856.34;;;20.03;47.10
21988;BME280;11158;53.404;-1.510;2022-08-01T01:29:23;100867.56;;;20.18;46.77
21988;BME280;11158;53.404;-1.510;2022-08-01T01:34:32;100864.72;;;20.01;47.01
21988;BME280;11158;53.404;-1.510;2022-08-01T01:37:01;100859.66;;;20.05;47.20
21988;BME280;11158;53.404;-1.510;2022-08-01T01:39:29;100851.25;;;19.83;47.59
21988;BME280;11158;53.404;-1.510;2022-08-01T01:41:56;100858.09;;;19.74;48.25
21988;BME280;11158;53.404;-1.510;2022-08-01T01:44:23;100860.47;;;19.82;48.00
21988;BME280;11158;53.404;-1.510;2022-08-01T01:46:51;100855.75;;;20.13;47.04
21988;BME280;11158;53.404;-1.510;2022-08-01T01:49:21;100858.22;;;20.26;46.61
21988;BME280;11158;53.404;-1.510;2022-08-01T01:51:48;100856.44;;;20.43;46.26
21988;BME280;11158;53.404;-1.510;2022-08-01T01:54:16;100854.16;;;20.52;46.25
21988;BME280;11158;53.404;-1.510;2022-08-01T01:56:42;100852.16;;;20.47;46.25
21988;BME280;11158;53.404;-1.510;2022-08-01T01:59:18;100844.25;;;20.69;45.69
21988;BME280;11158;53.404;-1.510;2022-08-01T02:01:47;100845.88;;;20.70;45.41
21988;BME280;11158;53.404;-1.510;2022-08-01T02:04:14;100842.78;;;20.79;45.57
21988;BME280;11158;53.404;-1.510;2022-08-01T02:06:40;100838.34;;;20.49;45.56
21988;BME280;11158;53.404;-1.510;2022-08-01T02:09:08;100840.75;;;20.34;46.05
21988;BME280;11158;53.404;-1.510;2022-08-01T02:11:36;100844.53;;;20.33;46.15
21988;BME280;11158;53.404;-1.510;2022-08-01T02:14:03;100836.59;;;20.43;46.26
21988;BME280;11158;53.404;-1.510;2022-08-01T02:16:33;100839.31;;;20.31;45.85
21988;BME280;11158;53.404;-1.510;2022-08-01T02:18:59;100842.31;;;20.06;46.45
21988;BME280;11158;53.404;-1.510;2022-08-01T02:21:38;100844.91;;;19.77;47.52
21988;BME280;11158;53.404;-1.510;2022-08-01T02:24:12;100841.00;;;20.20;46.61
21988;BME280;11158;53.404;-1.510;2022-08-01T02:26:44;100829.78;;;20.28;46.14
21988;BME280;11158;53.404;-1.510;2022-08-01T02:29:16;100834.56;;;20.50;45.80
21988;BME280;11158;53.404;-1.510;2022-08-01T02:31:44;100830.09;;;20.56;45.51
21988;BME280;11158;53.404;-1.510;2022-08-01T02:34:15;100828.69;;;20.53;45.60
21988;BME280;11158;53.404;-1.510;2022-08-01T02:36:44;100831.75;;;20.68;45.73
21988;BME280;11158;53.404;-1.510;2022-08-01T02:39:14;100830.06;;;20.67;45.65
21988;BME280;11158;53.404;-1.510;2022-08-01T02:41:44;100818.44;;;20.84;45.50
21988;BME280;11158;53.404;-1.510;2022-08-01T02:44:16;100818.13;;;20.80;45.58
21988;BME280;11158;53.404;-1.510;2022-08-01T02:46:52;100816.78;;;20.42;45.90
21988;BME280;11158;53.404;-1.510;2022-08-01T02:49:20;100814.19;;;20.36;46.06
21988;BME280;11158;53.404;-1.510;2022-08-01T02:51:48;100826.84;;;19.95;47.19
21988;BME280;11158;53.404;-1.510;2022-08-01T02:54:17;100817.88;;;20.06;47.07
21988;BME280;11158;53.404;-1.510;2022-08-01T02:56:44;100822.03;;;20.20;47.17
21988;BME280;11158;53.404;-1.510;2022-08-01T02:59:15;100821.41;;;20.30;46.81
21988;BME280;11158;53.404;-1.510;2022-08-01T03:01:43;100830.97;;;19.97;47.02
21988;BME280;11158;53.404;-1.510;2022-08-01T03:04:11;100829.63;;;19.53;48.35
21988;BME280;11158;53.404;-1.510;2022-08-01T03:06:38;100839.88;;;19.62;48.48
21988;BME280;11158;53.404;-1.510;2022-08-01T03:09:06;100844.34;;;19.15;49.46
21988;BME280;11158;53.404;-1.510;2022-08-01T03:11:32;100841.47;;;18.98;49.90
21988;BME280;11158;53.404;-1.510;2022-08-01T03:14:02;100843.44;;;19.21;49.52
21988;BME280;11158;53.404;-1.510;2022-08-01T03:16:32;100834.84;;;19.24;49.52
21988;BME280;11158;53.404;-1.510;2022-08-01T03:19:00;100841.34;;;19.23;49.15
21988;BME280;11158;53.404;-1.510;2022-08-01T03:21:28;100837.47;;;19.31;48.97
21988;BME280;11158;53.404;-1.510;2022-08-01T03:23:55;100832.00;;;18.89;50.09
21988;BME280;11158;53.404;-1.510;2022-08-01T03:26:26;100838.53;;;18.99;49.71
21988;BME280;11158;53.404;-1.510;2022-08-01T03:28:55;100834.34;;;19.03;49.35
21988;BME280;11158;53.404;-1.510;2022-08-01T03:31:22;100837.25;;;19.02;49.77
21988;BME280;11158;53.404;-1.510;2022-08-01T03:33:48;100838.25;;;19.19;49.14
21988;BME280;11158;53.404;-1.510;2022-08-01T03:36:14;100831.94;;;18.95;49.78
21988;BME280;11158;53.404;-1.510;2022-08-01T03:38:43;100835.03;;;18.62;50.63
21988;BME280;11158;53.404;-1.510;2022-08-01T03:41:19;100835.19;;;18.67;50.44
21988;BME280;11158;53.404;-1.510;2022-08-01T03:43:56;100829.09;;;18.72;50.33
21988;BME280;11158;53.404;-1.510;2022-08-01T03:46:32;100832.72;;;18.47;50.85
21988;BME280;11158;53.404;-1.510;2022-08-01T03:49:01;100830.25;;;18.76;50.09
21988;BME280;11158;53.404;-1.510;2022-08-01T03:51:30;100831.81;;;18.53;50.78
21988;BME280;11158;53.404;-1.510;2022-08-01T03:54:00;100823.25;;;18.38;51.13
21988;BME280;11158;53.404;-1.510;2022-08-01T03:56:28;100824.59;;;18.47;50.55
21988;BME280;11158;53.404;-1.510;2022-08-01T03:58:59;100823.16;;;18.45;50.95
21988;BME280;11158;53.404;-1.510;2022-08-01T04:01:25;100824.25;;;18.00;51.93
21988;BME280;11158;53.404;-1.510;2022-08-01T04:03:52;100819.91;;;18.17;51.69
21988;BME280;11158;53.404;-1.510;2022-08-01T04:06:18;100832.97;;;17.77;52.52
21988;BME280;11158;53.404;-1.510;2022-08-01T04:08:44;100837.09;;;17.79;52.77
21988;BME280;11158;53.404;-1.510;2022-08-01T04:11:21;100827.09;;;17.87;52.47
21988;BME280;11158;53.404;-1.510;2022-08-01T04:13:48;100821.13;;;18.03;52.05
21988;BME280;11158;53.404;-1.510;2022-08-01T04:16:13;100819.78;;;18.12;51.80
21988;BME280;11158;53.404;-1.510;2022-08-01T04:18:39;100818.78;;;18.25;51.49
21988;BME280;11158;53.404;-1.510;2022-08-01T04:21:05;100807.28;;;18.30;51.51
21988;BME280;11158;53.404;-1.510;2022-08-01T04:23:32;100815.56;;;18.16;52.01
21988;BME280;11158;53.404;-1.510;2022-08-01T04:26:02;100815.97;;;17.95;53.13
21988;BME280;11158;53.404;-1.510;2022-08-01T04:28:30;100817.69;;;18.14;52.38
21988;BME280;11158;53.404;-1.510;2022-08-01T04:30:57;100827.00;;;17.68;53.25
21988;BME280;11158;53.404;-1.510;2022-08-01T04:33:25;100824.22;;;17.82;52.68
21988;BME280;11158;53.404;-1.510;2022-08-01T04:35:52;100822.00;;;17.72;53.19
21988;BME280;11158;53.404;-1.510;2022-08-01T04:38:20;100817.41;;;17.97;52.20
21988;BME280;11158;53.404;-1.510;2022-08-01T04:40:48;100821.31;;;17.83;52.82
21988;BME280;11158;53.404;-1.510;2022-08-01T04:43:16;100816.75;;;18.20;51.86
21988;BME280;11158;53.404;-1.510;2022-08-01T04:45:43;100815.25;;;18.43;50.93
21988;BME280;11158;53.404;-1.510;2022-08-01T04:48:09;100823.22;;;18.19;51.69
21988;BME280;11158;53.404;-1.510;2022-08-01T04:50:36;100826.09;;;18.25;51.45
21988;BME280;11158;53.404;-1.510;2022-08-01T04:53:02;100827.31;;;18.29;51.44
21988;BME280;11158;53.404;-1.510;2022-08-01T04:55:29;100826.81;;;18.13;52.30
21988;BME280;11158;53.404;-1.510;2022-08-01T04:57:56;100820.38;;;18.33;51.58
21988;BME280;11158;53.404;-1.510;2022-08-01T05:00:22;100831.03;;;18.09;51.83
21988;BME280;11158;53.404;-1.510;2022-08-01T05:02:48;100834.94;;;18.13;51.92
21988;BME280;11158;53.404;-1.510;2022-08-01T05:05:14;100832.78;;;18.22;51.81
21988;BME280;11158;53.404;-1.510;2022-08-01T05:07:40;100826.38;;;18.72;50.77
21988;BME280;11158;53.404;-1.510;2022-08-01T05:10:06;100827.06;;;19.16;49.77
21988;BME280;11158;53.404;-1.510;2022-08-01T05:12:32;100824.59;;;19.68;48.37
21988;BME280;11158;53.404;-1.510;2022-08-01T05:14:59;100830.03;;;20.03;47.36
21988;BME280;11158;53.404;-1.510;2022-08-01T05:17:25;100830.97;;;20.33;46.52
21988;BME280;11158;53.404;-1.510;2022-08-01T05:19:52;100834.47;;;20.68;46.00
21988;BME280;11158;53.404;-1.510;2022-08-01T05:22:17;100827.47;;;20.73;45.31
21988;BME280;11158;53.404;-1.510;2022-08-01T05:24:43;100838.88;;;20.22;46.13
21988;BME280;11158;53.404;-1.510;2022-08-01T05:27:09;100836.28;;;19.27;48.65
21988;BME280;11158;53.404;-1.510;2022-08-01T05:29:34;100833.59;;;19.38;48.39
21988;BME280;11158;53.404;-1.510;2022-08-01T05:32:01;100834.00;;;19.65;47.82
21988;BME280;11158;53.404;-1.510;2022-08-01T05:34:27;100831.94;;;20.03;47.12
21988;BME280;11158;53.404;-1.510;2022-08-01T05:36:53;100823.31;;;20.29;46.53
21988;BME280;11158;53.404;-1.510;2022-08-01T05:39:19;100827.84;;;20.53;46.08
21988;BME280;11158;53.404;-1.510;2022-08-01T05:41:45;100829.28;;;20.43;46.09
21988;BME280;11158;53.404;-1.510;2022-08-01T05:44:11;100824.44;;;20.57;46.05
21988;BME280;11158;53.404;-1.510;2022-08-01T05:46:37;100827.75;;;20.59;45.69
21988;BME280;11158;53.404;-1.510;2022-08-01T05:49:04;100833.75;;;20.61;45.62
21988;BME280;11158;53.404;-1.510;2022-08-01T05:51:30;100834.66;;;21.07;44.79
21988;BME280;11158;53.404;-1.510;2022-08-01T05:53:56;100836.22;;;22.00;42.74
21988;BME280;11158;53.404;-1.510;2022-08-01T05:56:23;100834.13;;;22.90;40.65
21988;BME280;11158;53.404;-1.510;2022-08-01T05:58:49;100834.69;;;24.16;38.26
21988;BME280;11158;53.404;-1.510;2022-08-01T06:01:16;100821.19;;;25.30;35.65
21988;BME280;11158;53.404;-1.510;2022-08-01T06:03:44;100820.13;;;26.68;33.92
21988;BME280;11158;53.404;-1.510;2022-08-01T06:06:10;100828.47;;;27.71;31.50
21988;BME280;11158;53.404;-1.510;2022-08-01T06:08:35;100824.81;;;27.86;31.23
21988;BME280;11158;53.404;-1.510;2022-08-01T06:11:01;100829.97;;;28.40;30.34
21988;BME280;11158;53.404;-1.510;2022-08-01T06:13:28;100832.78;;;28.59;29.20
21988;BME280;11158;53.404;-1.510;2022-08-01T06:15:54;100831.94;;;27.82;30.49
21988;BME280;11158;53.404;-1.510;2022-08-01T06:18:20;100841.44;;;27.65;31.12
21988;BME280;11158;53.404;-1.510;2022-08-01T06:20:46;100826.84;;;24.93;34.85
21988;BME280;11158;53.404;-1.510;2022-08-01T06:23:12;100837.25;;;23.90;37.66
21988;BME280;11158;53.404;-1.510;2022-08-01T06:25:39;100839.50;;;23.98;37.15
21988;BME280;11158;53.404;-1.510;2022-08-01T06:28:04;100841.63;;;24.39;36.48
21988;BME280;11158;53.404;-1.510;2022-08-01T06:30:30;100843.84;;;23.03;38.92
21988;BME280;11158;53.404;-1.510;2022-08-01T06:32:56;100849.22;;;23.52;38.60
21988;BME280;11158;53.404;-1.510;2022-08-01T06:35:24;100846.78;;;23.82;38.09
21988;BME280;11158;53.404;-1.510;2022-08-01T06:37:49;100846.81;;;23.93;38.13
21988;BME280;11158;53.404;-1.510;2022-08-01T06:40:15;100846.50;;;24.27;37.58
21988;BME280;11158;53.404;-1.510;2022-08-01T06:42:41;100844.72;;;24.53;36.93
21988;BME280;11158;53.404;-1.510;2022-08-01T06:45:09;100834.13;;;24.14;37.73
21988;BME280;11158;53.404;-1.510;2022-08-01T06:47:37;100842.53;;;24.07;37.45
21988;BME280;11158;53.404;-1.510;2022-08-01T06:50:03;100849.16;;;23.47;38.78
21988;BME280;11158;53.404;-1.510;2022-08-01T06:52:30;100843.44;;;23.16;39.22
21988;BME280;11158;53.404;-1.510;2022-08-01T06:54:55;100849.66;;;22.06;41.47
21988;BME280;11158;53.404;-1.510;2022-08-01T06:57:21;100844.78;;;22.69;40.81
21988;BME280;11158;53.404;-1.510;2022-08-01T06:59:47;100847.00;;;23.49;39.09
21988;BME280;11158;53.404;-1.510;2022-08-01T07:02:13;100840.03;;;23.31;39.28
21988;BME280;11158;53.404;-1.510;2022-08-01T07:04:38;100846.56;;;22.80;40.53
21988;BME280;11158;53.404;-1.510;2022-08-01T07:07:04;100848.31;;;22.70;40.91
21988;BME280;11158;53.404;-1.510;2022-08-01T07:09:30;100849.97;;;22.49;40.94
21988;BME280;11158;53.404;-1.510;2022-08-01T07:11:56;100858.16;;;22.49;41.03
21988;BME280;11158;53.404;-1.510;2022-08-01T07:14:22;100845.13;;;23.22;39.25
21988;BME280;11158;53.404;-1.510;2022-08-01T07:16:49;100835.66;;;25.25;35.56
21988;BME280;11158;53.404;-1.510;2022-08-01T07:19:15;100832.13;;;25.97;33.93
21988;BME280;11158;53.404;-1.510;2022-08-01T07:21:40;100834.25;;;26.90;31.60
21988;BME280;11158;53.404;-1.510;2022-08-01T07:24:12;100827.56;;;28.77;29.12
21988;BME280;11158;53.404;-1.510;2022-08-01T07:26:46;100816.09;;;32.02;24.78
21988;BME280;11158;53.404;-1.510;2022-08-01T07:29:12;100809.94;;;33.49;22.30
21988;BME280;11158;53.404;-1.510;2022-08-01T07:31:37;100816.84;;;34.29;21.44
21988;BME280;11158;53.404;-1.510;2022-08-01T07:34:03;100820.22;;;34.43;20.58
21988;BME280;11158;53.404;-1.510;2022-08-01T07:36:29;100815.84;;;32.29;23.37
21988;BME280;11158;53.404;-1.510;2022-08-01T07:38:55;100828.03;;;32.20;22.92
21988;BME280;11158;53.404;-1.510;2022-08-01T07:41:21;100821.50;;;32.73;22.34
21988;BME280;11158;53.404;-1.510;2022-08-01T07:43:46;100822.78;;;32.58;22.49
21988;BME280;11158;53.404;-1.510;2022-08-01T07:46:14;100814.50;;;33.54;20.81
21988;BME280;11158;53.404;-1.510;2022-08-01T07:48:41;100821.66;;;32.94;21.42
21988;BME280;11158;53.404;-1.510;2022-08-01T07:51:07;100822.88;;;30.00;24.87
21988;BME280;11158;53.404;-1.510;2022-08-01T07:53:34;100837.69;;;26.62;29.46
21988;BME280;11158;53.404;-1.510;2022-08-01T07:56:00;100836.16;;;25.02;33.49
21988;BME280;11158;53.404;-1.510;2022-08-01T07:58:27;100840.34;;;23.34;36.19
21988;BME280;11158;53.404;-1.510;2022-08-01T08:00:53;100832.19;;;22.63;36.98
21988;BME280;11158;53.404;-1.510;2022-08-01T08:03:19;100833.44;;;22.16;38.44
21988;BME280;11158;53.404;-1.510;2022-08-01T08:05:45;100832.06;;;22.53;38.22
21988;BME280;11158;53.404;-1.510;2022-08-01T08:08:10;100831.50;;;22.51;37.65
21988;BME280;11158;53.404;-1.510;2022-08-01T08:10:36;100838.72;;;22.62;37.77
21988;BME280;11158;53.404;-1.510;2022-08-01T08:13:03;100837.00;;;22.56;37.63
21988;BME280;11158;53.404;-1.510;2022-08-01T08:15:29;100827.03;;;22.89;37.09
21988;BME280;11158;53.404;-1.510;2022-08-01T08:17:55;100829.50;;;22.90;37.72
21988;BME280;11158;53.404;-1.510;2022-08-01T08:20:21;100829.19;;;22.87;37.46
21988;BME280;11158;53.404;-1.510;2022-08-01T08:22:51;100831.78;;;21.43;39.64
21988;BME280;11158;53.404;-1.510;2022-08-01T08:25:16;100831.78;;;21.60;40.07
21988;BME280;11158;53.404;-1.510;2022-08-01T08:27:45;100818.59;;;21.51;40.26
21988;BME280;11158;53.404;-1.510;2022-08-01T08:30:11;100815.13;;;21.73;39.61
21988;BME280;11158;53.404;-1.510;2022-08-01T08:32:37;100818.50;;;21.80;39.53
21988;BME280;11158;53.404;-1.510;2022-08-01T08:35:05;100823.31;;;22.12;38.99
21988;BME280;11158;53.404;-1.510;2022-08-01T08:37:32;100821.97;;;22.53;37.98
21988;BME280;11158;53.404;-1.510;2022-08-01T08:39:58;100819.44;;;22.25;38.33
21988;BME280;11158;53.404;-1.510;2022-08-01T08:42:24;100818.06;;;22.66;37.98
21988;BME280;11158;53.404;-1.510;2022-08-01T08:44:52;100821.84;;;22.65;37.35
21988;BME280;11158;53.404;-1.510;2022-08-01T08:47:21;100813.19;;;22.68;36.90
21988;BME280;11158;53.404;-1.510;2022-08-01T08:49:50;100814.31;;;22.72;36.79
21988;BME280;11158;53.404;-1.510;2022-08-01T08:52:18;100821.22;;;22.58;36.96
21988;BME280;11158;53.404;-1.510;2022-08-01T08:54:45;100817.50;;;22.64;37.10
21988;BME280;11158;53.404;-1.510;2022-08-01T08:57:14;100814.56;;;22.71;36.94
21988;BME280;11158;53.404;-1.510;2022-08-01T08:59:40;100827.84;;;22.23;37.77
21988;BME280;11158;53.404;-1.510;2022-08-01T09:02:08;100819.69;;;22.23;37.96
21988;BME280;11158;53.404;-1.510;2022-08-01T09:04:36;100824.09;;;22.24;37.52
21988;BME280;11158;53.404;-1.510;2022-08-01T09:07:04;100823.50;;;22.44;37.45
21988;BME280;11158;53.404;-1.510;2022-08-01T09:09:30;100819.81;;;22.77;36.81
21988;BME280;11158;53.404;-1.510;2022-08-01T09:11:56;100822.66;;;22.88;37.12
21988;BME280;11158;53.404;-1.510;2022-08-01T09:14:22;100818.38;;;22.97;36.70
21988;BME280;11158;53.404;-1.510;2022-08-01T09:17:06;100816.19;;;23.16;36.41
21988;BME280;11158;53.404;-1.510;2022-08-01T09:19:54;100811.81;;;23.20;36.48
21988;BME280;11158;53.404;-1.510;2022-08-01T09:22:22;100811.84;;;23.52;35.83
21988;BME280;11158;53.404;-1.510;2022-08-01T09:25:05;100806.44;;;23.57;35.67
21988;BME280;11158;53.404;-1.510;2022-08-01T09:27:31;100791.09;;;24.41;34.62
21988;BME280;11158;53.404;-1.510;2022-08-01T09:30:17;100796.97;;;24.65;34.49
21988;BME280;11158;53.404;-1.510;2022-08-01T09:33:09;100807.66;;;24.87;34.14
21988;BME280;11158;53.404;-1.510;2022-08-01T09:35:35;100799.19;;;24.16;34.61
21988;BME280;11158;53.404;-1.510;2022-08-01T09:38:18;100814.16;;;24.03;34.78
21988;BME280;11158;53.404;-1.510;2022-08-01T09:40:58;100802.00;;;24.36;33.69
21988;BME280;11158;53.404;-1.510;2022-08-01T09:43:27;100808.84;;;23.21;36.12
21988;BME280;11158;53.404;-1.510;2022-08-01T09:45:56;100804.50;;;23.90;34.41
21988;BME280;11158;53.404;-1.510;2022-08-01T09:48:23;100807.78;;;23.87;34.84
21988;BME280;11158;53.404;-1.510;2022-08-01T09:50:51;100811.56;;;23.21;35.44
21988;BME280;11158;53.404;-1.510;2022-08-01T09:53:17;100803.78;;;23.03;36.18
21988;BME280;11158;53.404;-1.510;2022-08-01T09:55:43;100810.06;;;22.82;36.10
21988;BME280;11158;53.404;-1.510;2022-08-01T09:58:10;100808.66;;;22.79;36.79
21988;BME280;11158;53.404;-1.510;2022-08-01T10:00:38;100807.69;;;22.63;36.29
21988;BME280;11158;53.404;-1.510;2022-08-01T10:03:20;100806.25;;;23.05;35.82
21988;BME280;11158;53.404;-1.510;2022-08-01T10:05:45;100799.91;;;22.99;36.13
21988;BME280;11158;53.404;-1.510;2022-08-01T10:08:12;100806.13;;;23.54;35.11
21988;BME280;11158;53.404;-1.510;2022-08-01T10:10:38;100801.41;;;23.44;35.80
21988;BME280;11158;53.404;-1.510;2022-08-01T10:13:04;100812.44;;;23.27;36.15
21988;BME280;11158;53.404;-1.510;2022-08-01T10:15:30;100818.16;;;23.26;36.37
21988;BME280;11158;53.404;-1.510;2022-08-01T10:17:59;100813.50;;;23.53;35.15
21988;BME280;11158;53.404;-1.510;2022-08-01T10:20:30;100814.25;;;23.76;35.77
21988;BME280;11158;53.404;-1.510;2022-08-01T10:22:59;100809.47;;;23.98;34.39
21988;BME280;11158;53.404;-1.510;2022-08-01T10:25:27;100811.56;;;24.29;33.80
21988;BME280;11158;53.404;-1.510;2022-08-01T10:27:54;100809.06;;;24.27;34.64
21988;BME280;11158;53.404;-1.510;2022-08-01T10:30:21;100812.09;;;23.83;35.75
21988;BME280;11158;53.404;-1.510;2022-08-01T10:32:47;100804.31;;;24.55;33.72
21988;BME280;11158;53.404;-1.510;2022-08-01T10:35:13;100810.31;;;24.52;34.29
21988;BME280;11158;53.404;-1.510;2022-08-01T10:37:44;100818.41;;;24.36;34.88
21988;BME280;11158;53.404;-1.510;2022-08-01T10:40:14;100816.25;;;23.58;35.74
21988;BME280;11158;53.404;-1.510;2022-08-01T10:42:44;100812.63;;;24.28;35.13
21988;BME280;11158;53.404;-1.510;2022-08-01T10:45:15;100813.16;;;24.19;35.58
21988;BME280;11158;53.404;-1.510;2022-08-01T10:53:22;100798.88;;;24.65;34.15
21988;BME280;11158;53.404;-1.510;2022-08-01T10:58:37;100787.53;;;25.40;32.94
21988;BME280;11158;53.404;-1.510;2022-08-01T11:01:26;100788.03;;;25.88;31.88
21988;BME280;11158;53.404;-1.510;2022-08-01T11:06:24;100783.81;;;26.86;30.71
21988;BME280;11158;53.404;-1.510;2022-08-01T11:08:53;100779.75;;;27.18;30.36
21988;BME280;11158;53.404;-1.510;2022-08-01T11:11:20;100778.63;;;26.25;30.76
21988;BME280;11158;53.404;-1.510;2022-08-01T11:14:03;100773.75;;;26.11;32.08
21988;BME280;11158;53.404;-1.510;2022-08-01T11:16:37;100785.63;;;25.30;33.93
21988;BME280;11158;53.404;-1.510;2022-08-01T11:19:04;100774.91;;;24.93;34.28
21988;BME280;11158;53.404;-1.510;2022-08-01T11:32:49;100757.03;;;27.12;31.35
21988;BME280;11158;53.404;-1.510;2022-08-01T11:35:16;100755.31;;;27.56;29.49
21988;BME280;11158;53.404;-1.510;2022-08-01T11:37:42;100754.09;;;27.67;30.16
21988;BME280;11158;53.404;-1.510;2022-08-01T11:42:41;100736.59;;;28.11;28.88
21988;BME280;11158;53.404;-1.510;2022-08-01T11:45:07;100737.66;;;27.91;29.21
21988;BME280;11158;53.404;-1.510;2022-08-01T11:47:43;100722.25;;;27.03;30.32
21988;BME280;11158;53.404;-1.510;2022-08-01T11:50:39;100718.03;;;28.22;28.83
21988;BME280;11158;53.404;-1.510;2022-08-01T11:53:07;100717.63;;;27.91;28.73
21988;BME280;11158;53.404;-1.510;2022-08-01T11:55:34;100726.00;;;27.17;29.88
21988;BME280;11158;53.404;-1.510;2022-08-01T11:58:05;100719.69;;;27.75;29.25
21988;BME280;11158;53.404;-1.510;2022-08-01T12:00:32;100728.75;;;27.12;30.30
21988;BME280;11158;53.404;-1.510;2022-08-01T12:03:05;100715.19;;;26.52;30.26
21988;BME280;11158;53.404;-1.510;2022-08-01T12:05:33;100723.16;;;25.88;31.31
21988;BME280;11158;53.404;-1.510;2022-08-01T12:08:00;100736.19;;;26.17;32.17
21988;BME280;11158;53.404;-1.510;2022-08-01T12:10:28;100726.19;;;25.87;31.91
21988;BME280;11158;53.404;-1.510;2022-08-01T12:13:01;100729.97;;;26.01;32.27
21988;BME280;11158;53.404;-1.510;2022-08-01T12:15:31;100715.56;;;26.35;32.05
21988;BME280;11158;53.404;-1.510;2022-08-01T12:17:59;100721.41;;;27.07;30.25
21988;BME280;11158;53.404;-1.510;2022-08-01T12:20:39;100715.22;;;27.55;29.40
21988;BME280;11158;53.404;-1.510;2022-08-01T12:23:08;100716.75;;;27.08;30.48
21988;BME280;11158;53.404;-1.510;2022-08-01T12:25:35;100720.91;;;27.34;30.20
21988;BME280;11158;53.404;-1.510;2022-08-01T12:28:11;100718.91;;;27.45;29.45
21988;BME280;11158;53.404;-1.510;2022-08-01T12:30:40;100711.25;;;27.42;29.96
21988;BME280;11158;53.404;-1.510;2022-08-01T12:33:09;100711.97;;;26.89;30.67
21988;BME280;11158;53.404;-1.510;2022-08-01T12:35:37;100701.09;;;26.74;31.18
21988;BME280;11158;53.404;-1.510;2022-08-01T12:38:21;100704.88;;;26.83;31.09
21988;BME280;11158;53.404;-1.510;2022-08-01T12:40:48;100695.81;;;26.38;31.14
21988;BME280;11158;53.404;-1.510;2022-08-01T12:43:19;100700.94;;;26.94;30.66
21988;BME280;11158;53.404;-1.510;2022-08-01T12:45:46;100689.84;;;27.10;30.17
21988;BME280;11158;53.404;-1.510;2022-08-01T12:48:14;100689.59;;;27.06;30.86
21988;BME280;11158;53.404;-1.510;2022-08-01T12:50:45;100690.47;;;26.67;31.00
21988;BME280;11158;53.404;-1.510;2022-08-01T12:53:13;100685.03;;;26.97;31.01
21988;BME280;11158;53.404;-1.510;2022-08-01T12:55:48;100679.13;;;26.79;29.92
21988;BME280;11158;53.404;-1.510;2022-08-01T12:58:16;100684.31;;;27.15;30.48
21988;BME280;11158;53.404;-1.510;2022-08-01T13:00:44;100690.19;;;27.32;30.21
21988;BME280;11158;53.404;-1.510;2022-08-01T13:03:13;100673.88;;;27.70;30.40
21988;BME280;11158;53.404;-1.510;2022-08-01T13:05:54;100666.06;;;28.26;29.52
21988;BME280;11158;53.404;-1.510;2022-08-01T13:08:21;100663.28;;;27.88;29.26
21988;BME280;11158;53.404;-1.510;2022-08-01T13:10:47;100670.75;;;27.58;29.86
21988;BME280;11158;53.404;-1.510;2022-08-01T13:13:14;100665.91;;;26.86;30.97
21988;BME280;11158;53.404;-1.510;2022-08-01T13:15:42;100665.94;;;27.45;30.67
21988;BME280;11158;53.404;-1.510;2022-08-01T13:21:11;100662.22;;;27.01;31.11
21988;BME280;11158;53.404;-1.510;2022-08-01T13:23:39;100657.56;;;28.03;28.94
21988;BME280;11158;53.404;-1.510;2022-08-01T13:26:05;100643.72;;;28.51;28.67
21988;BME280;11158;53.404;-1.510;2022-08-01T13:28:32;100652.53;;;28.67;28.54